Time;durP1;ratioP1;P1;durP2;ratioP2;P2;SDS_P1;SDS_P2;PMS_P1;PMS_P2;Temp;Humidity;BMP_temperature;BMP_pressure;BME280_temperature;BME280_humidity;BME280_pressure;Samples;Min_cycle;Max_cycle;Signal;HPM_P1;HPM_P2
2022/05/07 00:01:07;;;;;;;0.20;0.20;;;;;;;14.93;71.66;99852.41;6225075;23;20336;-78
2022/05/07 00:03:33;;;;;;;0.20;0.20;;;;;;;14.97;71.73;99840.38;6231273;23;20035;-78
2022/05/07 00:06:04;;;;;;;0.20;0.20;;;;;;;14.83;72.39;99832.78;6259488;23;20004;-78
2022/05/07 00:08:33;;;;;;;0.20;0.20;;;;;;;14.92;71.63;99834.00;6233642;23;20086;-78
2022/05/07 00:10:59;;;;;;;0.20;0.20;;;;;;;14.89;71.28;99839.59;6234542;23;20004;-78
2022/05/07 00:13:25;;;;;;;0.20;0.20;;;;;;;14.78;71.61;99850.78;6262007;23;19996;-78
2022/05/07 00:18:40;;;;;;;0.20;0.20;;;;;;;14.71;71.98;99844.41;6262577;23;20337;-78
2022/05/07 00:21:06;;;;;;;0.20;0.20;;;;;;;14.74;72.00;99849.97;6235784;23;20012;-78
2022/05/07 00:23:34;;;;;;;0.20;0.20;;;;;;;14.76;72.14;99842.00;6234107;23;20011;-78
2022/05/07 00:26:03;;;;;;;0.20;0.20;;;;;;;14.84;72.05;99848.41;6233993;23;20011;-78
2022/05/07 00:28:31;;;;;;;0.10;0.10;;;;;;;14.73;72.26;99837.19;6232201;23;20444;-78
2022/05/07 00:31:02;;;;;;;0.20;0.20;;;;;;;14.66;72.65;99848.41;6225686;23;20013;-78
2022/05/07 00:33:30;;;;;;;0.20;0.20;;;;;;;14.65;72.64;99835.59;6226426;23;20011;-78
2022/05/07 00:35:59;;;;;;;0.10;0.10;;;;;;;14.78;72.38;99833.19;6227461;23;20070;-78
2022/05/07 00:38:24;;;;;;;0.20;0.20;;;;;;;14.75;72.30;99831.19;6227682;23;20015;-78
2022/05/07 00:40:53;;;;;;;0.20;0.20;;;;;;;14.79;72.17;99823.59;6227722;23;20004;-78
2022/05/07 00:43:18;;;;;;;0.20;0.20;;;;;;;14.80;72.68;99827.97;6228762;23;20032;-78
2022/05/07 00:45:47;;;;;;;0.20;0.20;;;;;;;14.79;72.87;99838.38;6224300;23;20035;-78
2022/05/07 00:48:16;;;;;;;0.10;0.10;;;;;;;14.85;73.21;99836.00;6221584;23;20379;-78
2022/05/07 00:53:30;;;;;;;0.15;0.15;;;;;;;15.11;71.81;99841.19;6218900;23;20070;-78
2022/05/07 00:55:56;;;;;;;0.20;0.20;;;;;;;15.04;71.38;99835.59;6220379;23;20066;-78
2022/05/07 00:58:22;;;;;;;0.20;0.20;;;;;;;15.08;72.03;99841.19;6222957;23;20004;-78
2022/05/07 01:00:53;;;;;;;0.20;0.20;;;;;;;15.06;70.75;99844.38;6222506;23;20007;-78
2022/05/07 01:03:33;;;;;;;0.20;0.20;;;;;;;14.97;71.73;99834.78;6220145;23;20015;-78
2022/05/07 01:05:59;;;;;;;0.20;0.20;;;;;;;14.96;71.11;99828.38;6219244;23;20344;-78
2022/05/07 01:08:25;;;;;;;0.20;0.20;;;;;;;14.96;71.20;99827.56;6221378;23;20008;-80
2022/05/07 01:10:52;;;;;;;0.20;0.20;;;;;;;15.08;71.41;99819.59;6217366;23;20031;-78
2022/05/07 01:13:19;;;;;;;0.20;0.20;;;;;;;15.06;71.53;99827.56;6193422;23;20009;-78
2022/05/07 01:15:56;;;;;;;0.20;0.20;;;;;;;15.12;70.67;99814.75;6217059;23;20309;-78
2022/05/07 01:18:22;;;;;;;0.20;0.20;;;;;;;15.23;69.83;99813.94;6220873;23;20011;-78
2022/05/07 01:20:55;;;;;;;0.20;0.20;;;;;;;15.17;69.31;99817.16;6194159;23;20004;-78
2022/05/07 01:23:21;;;;;;;0.20;0.20;;;;;;;15.10;70.24;99819.16;6219123;23;20004;-78
2022/05/07 01:25:50;;;;;;;0.20;0.20;;;;;;;15.11;69.80;99818.75;6218544;23;20009;-78
2022/05/07 01:28:18;;;;;;;0.20;0.20;;;;;;;15.20;69.46;99809.94;6219100;23;20039;-78
2022/05/07 01:30:49;;;;;;;0.20;0.20;;;;;;;15.23;68.86;99819.53;6220467;23;20012;-78
2022/05/07 01:33:18;;;;;;;0.20;0.20;;;;;;;15.15;69.17;99808.34;6220605;23;20011;-78
2022/05/07 01:35:46;;;;;;;0.20;0.20;;;;;;;15.17;70.04;99805.94;6217044;23;20013;-78
2022/05/07 01:38:14;;;;;;;0.20;0.20;;;;;;;15.23;69.97;99797.13;6215623;23;20015;-78
2022/05/07 01:40:43;;;;;;;0.20;0.20;;;;;;;15.23;70.04;99803.53;6215085;23;20001;-78
2022/05/07 01:43:11;;;;;;;0.20;0.20;;;;;;;15.28;69.11;99802.31;6216529;23;20493;-79
2022/05/07 01:45:39;;;;;;;0.20;0.20;;;;;;;15.26;69.41;99796.31;6215561;23;20382;-80
2022/05/07 01:48:11;;;;;;;0.20;0.20;;;;;;;15.18;70.28;99789.94;6215096;23;20012;-78
2022/05/07 01:50:48;;;;;;;0.20;0.20;;;;;;;15.24;69.71;99807.94;6216863;23;20012;-78
2022/05/07 01:53:20;;;;;;;0.20;0.20;;;;;;;15.24;69.36;99807.94;6215049;23;20049;-78
2022/05/07 01:55:48;;;;;;;0.20;0.20;;;;;;;15.33;67.89;99807.50;6215095;23;20054;-78
2022/05/07 01:58:16;;;;;;;0.20;0.20;;;;;;;15.35;68.76;99810.72;6214988;23;20040;-78
2022/05/07 02:00:44;;;;;;;0.20;0.20;;;;;;;15.30;68.78;99814.75;6214844;23;20008;-78
2022/05/07 02:03:10;;;;;;;0.20;0.20;;;;;;;15.31;68.90;99821.13;6215312;23;20446;-78
2022/05/07 02:05:38;;;;;;;0.10;0.10;;;;;;;15.29;68.64;99810.34;6190083;23;20012;-78
2022/05/07 02:08:07;;;;;;;0.17;0.17;;;;;;;15.43;68.39;99806.69;6214948;23;20083;-78
2022/05/07 02:10:35;;;;;;;0.20;0.20;;;;;;;15.52;68.03;99797.84;6214723;23;20005;-77
2022/05/07 02:13:01;;;;;;;0.20;0.20;;;;;;;15.45;67.92;99790.28;6214830;23;20564;-78
2022/05/07 02:15:36;;;;;;;0.20;0.20;;;;;;;15.62;66.89;99797.81;6215195;23;20008;-78
2022/05/07 02:18:01;;;;;;;0.20;0.20;;;;;;;15.54;67.19;99792.63;6215448;23;20317;-78
2022/05/07 02:20:32;;;;;;;0.20;0.20;;;;;;;15.49;67.95;99791.03;6214628;23;20051;-78
2022/05/07 02:22:58;;;;;;;0.20;0.20;;;;;;;15.46;67.79;99795.47;6216431;23;20028;-78
2022/05/07 02:25:26;;;;;;;0.20;0.20;;;;;;;15.36;68.26;99773.06;6214229;23;20015;-78
2022/05/07 02:27:57;;;;;;;0.20;0.20;;;;;;;15.39;67.70;99775.88;6215364;23;20088;-78
2022/05/07 02:30:26;;;;;;;0.20;0.20;;;;;;;15.49;67.36;99782.63;6214351;23;20020;-77
2022/05/07 02:32:57;;;;;;;0.20;0.20;;;;;;;15.43;67.46;99767.44;6214426;23;20438;-78
2022/05/07 02:35:26;;;;;;;0.20;0.20;;;;;;;15.58;66.28;99785.00;6207280;23;20012;-78
2022/05/07 02:37:54;;;;;;;0.20;0.20;;;;;;;15.58;66.67;99785.81;6214308;23;20047;-78
2022/05/07 02:40:25;;;;;;;0.20;0.20;;;;;;;15.52;66.54;99781.84;6214408;23;20036;-78
2022/05/07 02:42:53;;;;;;;0.20;0.20;;;;;;;15.46;67.34;99780.66;6214627;23;20012;-78
2022/05/07 02:45:24;;;;;;;0.20;0.20;;;;;;;15.34;66.72;99764.25;6214690;23;20009;-78
2022/05/07 02:47:50;;;;;;;0.20;0.20;;;;;;;15.43;67.48;99775.84;6215776;23;20008;-78
2022/05/07 02:50:21;;;;;;;0.20;0.20;;;;;;;15.44;67.44;99766.22;6214917;23;20009;-79
2022/05/07 02:52:46;;;;;;;0.20;0.20;;;;;;;15.43;67.56;99761.84;6214945;23;20008;-78
2022/05/07 02:55:22;;;;;;;0.20;0.20;;;;;;;15.41;68.08;99764.25;6216821;23;20012;-78
2022/05/07 02:57:48;;;;;;;0.10;0.10;;;;;;;15.42;67.38;99752.63;6214218;23;20009;-78
2022/05/07 03:00:17;;;;;;;0.20;0.20;;;;;;;15.45;67.64;99751.03;6214445;23;20034;-78
2022/05/07 03:02:45;;;;;;;0.20;0.20;;;;;;;15.40;66.66;99751.44;6214802;23;20032;-78
2022/05/07 03:05:16;;;;;;;0.10;0.10;;;;;;;15.34;66.43;99736.22;6214466;23;20009;-78
2022/05/07 03:07:45;;;;;;;0.20;0.20;;;;;;;15.44;65.26;99739.00;6214805;23;20004;-78
2022/05/07 03:10:13;;;;;;;0.20;0.20;;;;;;;15.44;65.11;99750.19;6214442;23;20015;-78
2022/05/07 03:12:41;;;;;;;0.20;0.20;;;;;;;15.48;64.67;99747.41;6214470;23;20009;-78
2022/05/07 03:15:08;;;;;;;0.10;0.10;;;;;;;15.38;65.30;99751.81;6205589;23;20043;-78
2022/05/07 03:17:34;;;;;;;0.20;0.20;;;;;;;15.30;65.66;99746.66;6214432;23;20009;-78
2022/05/07 03:20:03;;;;;;;0.20;0.20;;;;;;;15.32;65.99;99738.66;6214456;23;20009;-80
2022/05/07 03:22:31;;;;;;;0.20;0.20;;;;;;;15.41;65.50;99756.63;6216059;23;20008;-78
2022/05/07 03:25:00;;;;;;;0.10;0.10;;;;;;;15.34;65.66;99753.88;6215139;23;20012;-79
2022/05/07 03:27:27;;;;;;;0.20;0.20;;;;;;;15.32;65.69;99742.25;6214406;23;20015;-79
2022/05/07 03:29:59;;;;;;;0.20;0.20;;;;;;;15.38;65.97;99748.22;6220337;23;20012;-79
2022/05/07 03:32:53;;;;;;;0.20;0.20;;;;;;;15.43;63.57;99742.22;6246626;23;20008;-78
2022/05/07 03:35:19;;;;;;;0.15;0.15;;;;;;;15.69;62.43;99746.53;6220239;23;20078;-78
2022/05/07 03:37:50;;;;;;;0.20;0.20;;;;;;;15.70;63.41;99742.50;6222969;23;20051;-78
2022/05/07 03:40:16;;;;;;;0.20;0.20;;;;;;;15.67;64.49;99743.34;6222548;23;20047;-78
2022/05/07 03:42:43;;;;;;;0.20;0.20;;;;;;;15.58;65.48;99735.34;6248646;23;20004;-78
2022/05/07 03:45:09;;;;;;;0.20;0.20;;;;;;;15.40;64.97;99729.03;6223293;23;20016;-78
2022/05/07 03:47:40;;;;;;;0.20;0.20;;;;;;;15.37;65.38;99741.03;6225756;23;20379;-79
2022/05/07 03:50:10;;;;;;;0.20;0.20;;;;;;;15.40;65.32;99741.03;6249263;23;20000;-79
2022/05/07 03:55:25;;;;;;;0.20;0.20;;;;;;;15.29;64.81;99734.66;6253171;23;20043;-78
2022/05/07 03:57:54;;;;;;;0.20;0.20;;;;;;;15.20;64.99;99737.88;6225899;23;20039;-78
2022/05/07 04:00:20;;;;;;;0.20;0.20;;;;;;;15.22;64.76;99726.25;6222869;23;20015;-78
2022/05/07 04:02:53;;;;;;;0.20;0.20;;;;;;;15.28;65.51;99732.25;6196775;23;20008;-78
2022/05/07 04:05:18;;;;;;;0.20;0.20;;;;;;;15.18;65.61;99743.09;6248433;23;20008;-78
2022/05/07 04:07:46;;;;;;;0.20;0.20;;;;;;;15.12;65.91;99747.50;6220320;23;20369;-78
2022/05/07 04:10:15;;;;;;;0.20;0.20;;;;;;;15.22;66.12;99756.28;6221050;23;20051;-79
2022/05/07 04:12:51;;;;;;;0.20;0.20;;;;;;;15.13;66.45;99749.13;6221229;23;20015;-79
2022/05/07 04:15:17;;;;;;;0.20;0.20;;;;;;;15.16;65.99;99759.50;6221013;23;20012;-78
2022/05/07 04:17:45;;;;;;;0.20;0.20;;;;;;;15.15;66.19;99757.13;6221719;23;20039;-78
2022/05/07 04:20:14;;;;;;;0.20;0.20;;;;;;;15.15;66.08;99757.91;6220877;23;20008;-79
2022/05/07 04:22:40;;;;;;;0.20;0.20;;;;;;;15.19;65.73;99753.09;6247769;23;20058;-79
2022/05/07 04:25:08;;;;;;;0.20;0.20;;;;;;;15.17;66.12;99749.88;6196750;23;20087;-79
2022/05/07 04:27:34;;;;;;;0.20;0.20;;;;;;;15.23;66.14;99760.69;6221296;23;20066;-79
2022/05/07 04:30:02;;;;;;;0.20;0.20;;;;;;;15.24;65.65;99760.31;6247515;23;20019;-79
2022/05/07 04:32:31;;;;;;;0.20;0.20;;;;;;;15.25;65.71;99750.69;6196321;23;20441;-79
2022/05/07 04:34:57;;;;;;;0.20;0.20;;;;;;;15.35;65.02;99754.66;6220656;23;20016;-80
2022/05/07 04:37:26;;;;;;;0.20;0.20;;;;;;;15.26;65.06;99735.47;6220709;23;20065;-78
2022/05/07 04:39:54;;;;;;;0.20;0.20;;;;;;;15.43;65.38;99759.03;6221714;23;20015;-79
2022/05/07 04:42:20;;;;;;;0.20;0.20;;;;;;;15.46;65.27;99750.63;6220941;23;20012;-79
2022/05/07 04:44:45;;;;;;;0.20;0.20;;;;;;;15.54;64.88;99756.19;6220557;23;20329;-78
2022/05/07 04:47:14;;;;;;;0.20;0.20;;;;;;;15.53;65.22;99760.19;6247074;23;20036;-79
2022/05/07 04:49:42;;;;;;;0.20;0.20;;;;;;;15.63;65.19;99750.97;6247611;23;20015;-79
2022/05/07 04:52:13;;;;;;;0.20;0.20;;;;;;;15.55;65.78;99740.94;6220134;23;20091;-79
2022/05/07 04:54:42;;;;;;;0.20;0.20;;;;;;;15.67;65.77;99746.16;6220670;23;20076;-78
2022/05/07 04:57:11;;;;;;;0.20;0.20;;;;;;;15.57;65.25;99744.97;6219717;23;20012;-79
2022/05/07 04:59:40;;;;;;;0.13;0.13;;;;;;;15.61;65.16;99751.34;6247495;23;20008;-79
2022/05/07 05:02:08;;;;;;;0.20;0.20;;;;;;;15.60;64.88;99749.75;6220299;23;20005;-79
2022/05/07 05:04:33;;;;;;;0.20;0.20;;;;;;;15.50;64.47;99756.22;6220470;23;20008;-79
2022/05/07 05:06:59;;;;;;;0.20;0.20;;;;;;;15.48;64.76;99750.19;6220185;23;20023;-77
2022/05/07 05:09:25;;;;;;;0.20;0.20;;;;;;;15.47;64.43;99762.63;6219889;23;20004;-77
2022/05/07 05:11:53;;;;;;;0.20;0.20;;;;;;;15.49;64.72;99754.59;6220351;23;20091;-77
2022/05/07 05:17:02;;;;;;;;;;;;;;;15.73;65.26;99752.13;6248183;23;20378;-79
2022/05/07 05:19:30;;;;;;;0.20;0.20;;;;;;;15.78;64.34;99748.91;6220750;23;19931;-79
2022/05/07 05:21:59;;;;;;;0.20;0.20;;;;;;;15.63;64.80;99715.31;6220294;23;20027;-79
2022/05/07 05:24:24;;;;;;;0.20;0.20;;;;;;;15.82;64.33;99732.84;6220181;23;20000;-76
2022/05/07 05:26:52;;;;;;;0.20;0.20;;;;;;;15.91;63.71;99736.78;6220397;23;20018;-76
2022/05/07 05:29:22;;;;;;;0.20;0.20;;;;;;;15.93;63.55;99742.00;6220289;23;20015;-77
2022/05/07 05:31:48;;;;;;;0.20;0.20;;;;;;;15.98;63.43;99748.00;6214444;23;20017;-77
2022/05/07 05:34:13;;;;;;;0.20;0.20;;;;;;;16.10;63.27;99749.50;6215821;23;20013;-77
2022/05/07 05:36:40;;;;;;;0.20;0.20;;;;;;;16.12;62.42;99751.91;6214780;23;20084;-76
2022/05/07 05:39:07;;;;;;;0.20;0.20;;;;;;;16.29;61.41;99761.41;6215179;23;20047;-77
2022/05/07 05:41:35;;;;;;;0.20;0.20;;;;;;;16.27;60.84;99752.59;6215024;23;20004;-78
2022/05/07 05:44:04;;;;;;;0.20;0.20;;;;;;;16.35;61.35;99749.34;6217257;23;20039;-76
2022/05/07 05:46:31;;;;;;;0.20;0.20;;;;;;;16.38;61.75;99750.53;6214347;23;20012;-77
2022/05/07 05:48:58;;;;;;;0.20;0.20;;;;;;;16.48;61.23;99758.06;6217225;23;20410;-78
2022/05/07 05:51:23;;;;;;;0.20;0.20;;;;;;;16.47;59.90;99762.09;6214751;23;20008;-77
2022/05/07 05:53:49;;;;;;;0.20;0.20;;;;;;;16.56;59.06;99765.19;6215143;23;20104;-80
2022/05/07 05:56:15;;;;;;;0.10;0.10;;;;;;;16.48;58.70;99758.06;6215963;23;20055;-78
2022/05/07 05:58:40;;;;;;;0.20;0.20;;;;;;;16.60;58.40;99777.22;6215021;23;20008;-79
2022/05/07 06:01:06;;;;;;;0.20;0.20;;;;;;;16.79;57.83;99767.47;6214502;23;20063;-78
2022/05/07 06:03:32;;;;;;;0.20;0.20;;;;;;;16.89;57.01;99768.59;6214984;23;20011;-79
2022/05/07 06:05:57;;;;;;;0.20;0.20;;;;;;;16.99;57.15;99776.09;6214819;23;20009;-78
2022/05/07 06:08:29;;;;;;;0.20;0.20;;;;;;;17.05;57.33;99776.47;6214554;23;20012;-78
2022/05/07 06:10:58;;;;;;;0.20;0.20;;;;;;;17.16;57.21;99783.56;6216559;23;20062;-79
2022/05/07 06:13:29;;;;;;;0.20;0.20;;;;;;;17.34;56.53;99785.38;6216723;23;20011;-78
2022/05/07 06:15:54;;;;;;;0.20;0.20;;;;;;;17.24;56.63;99768.22;6214852;23;20047;-78
2022/05/07 06:18:25;;;;;;;0.20;0.20;;;;;;;17.37;56.30;99790.97;6214702;23;20004;-80
2022/05/07 06:20:50;;;;;;;0.20;0.20;;;;;;;17.55;55.94;99787.94;6214939;23;20019;-79
2022/05/07 06:23:22;;;;;;;0.20;0.20;;;;;;;17.63;56.37;99786.66;6214659;23;20330;-77
2022/05/07 06:28:37;;;;;;;0.15;0.15;;;;;;;17.65;55.50;99774.97;6216168;23;20024;-77
2022/05/07 06:31:03;;;;;;;0.20;0.20;;;;;;;17.66;55.29;99774.56;6214232;23;20019;-77
2022/05/07 06:33:32;;;;;;;0.20;0.20;;;;;;;17.49;53.52;99775.56;6214517;23;20020;-76
2022/05/07 06:35:58;;;;;;;0.10;0.10;;;;;;;17.43;51.90;99771.63;6215022;23;20008;-79
2022/05/07 06:38:26;;;;;;;0.20;0.20;;;;;;;17.36;52.28;99772.50;6215144;23;20366;-78
2022/05/07 06:40:56;;;;;;;0.20;0.20;;;;;;;17.35;51.95;99767.28;6214505;23;20012;-79
2022/05/07 06:43:25;;;;;;;0.10;0.10;;;;;;;17.23;53.84;99768.63;6214525;23;20374;-76
2022/05/07 06:45:50;;;;;;;0.20;0.20;;;;;;;17.18;54.38;99767.06;6214552;23;20012;-80
2022/05/07 06:48:16;;;;;;;0.20;0.20;;;;;;;17.25;55.07;99760.56;6214345;23;20015;-75
2022/05/07 06:50:44;;;;;;;0.20;0.20;;;;;;;17.36;55.21;99761.25;6214845;23;20036;-85
2022/05/07 06:53:13;;;;;;;0.20;0.20;;;;;;;17.40;55.38;99762.00;6214448;23;20039;-78
2022/05/07 06:55:54;;;;;;;0.20;0.20;;;;;;;17.49;54.77;99765.13;6214785;23;20425;-76
2022/05/07 06:58:25;;;;;;;0.20;0.20;;;;;;;17.68;53.32;99760.84;6213633;23;20016;-74
2022/05/07 07:00:51;;;;;;;0.20;0.20;;;;;;;17.66;54.02;99760.47;6214180;23;20426;-74
2022/05/07 07:03:17;;;;;;;0.20;0.20;;;;;;;17.89;51.92;99765.44;6216031;23;20020;-74
2022/05/07 07:05:50;;;;;;;0.20;0.20;;;;;;;18.04;51.70;99757.59;6214669;23;20004;-72
2022/05/07 07:08:16;;;;;;;0.20;0.20;;;;;;;18.15;51.47;99749.78;6214895;23;20008;-75
2022/05/07 07:10:42;;;;;;;0.20;0.20;;;;;;;18.40;51.78;99760.69;6215364;23;20001;-77
2022/05/07 07:13:09;;;;;;;0.20;0.20;;;;;;;18.50;51.66;99759.72;6216361;23;20066;-76
2022/05/07 07:15:42;;;;;;;0.20;0.20;;;;;;;18.56;51.92;99757.22;6190011;23;20414;-81
2022/05/07 07:18:11;;;;;;;;;;;;;;;18.55;51.23;99761.25;6214811;23;20032;-85
2022/05/07 07:20:41;;;;;;;0.10;0.10;;;;;;;18.48;51.96;99750.09;6215340;23;19939;-85
2022/05/07 07:23:11;;;;;;;0.20;0.20;;;;;;;18.44;51.80;99760.63;6216557;23;20005;-83
2022/05/07 07:25:44;;;;;;;0.20;0.20;;;;;;;18.52;51.66;99762.09;6217062;23;20011;-86
2022/05/07 07:28:12;;;;;;;0.10;0.10;;;;;;;18.48;52.04;99761.34;6218432;23;20010;-84
2022/05/07 07:30:44;;;;;;;0.17;0.17;;;;;;;18.61;52.27;99748.28;6215832;23;20032;-85
2022/05/07 07:33:13;;;;;;;0.10;0.10;;;;;;;18.74;52.25;99754.91;6216972;23;20047;-86
2022/05/07 07:35:41;;;;;;;0.20;0.20;;;;;;;18.90;53.42;99765.50;6191340;23;20036;-85
2022/05/07 07:38:07;;;;;;;0.10;0.10;;;;;;;18.82;52.05;99759.22;6216585;23;20013;-81
2022/05/07 07:40:35;;;;;;;0.20;0.20;;;;;;;18.98;53.26;99769.00;6217361;23;20448;-83
2022/05/07 07:43:01;;;;;;;0.20;0.20;;;;;;;19.01;52.67;99766.09;6215719;23;20000;-80
2022/05/07 07:48:10;;;;;;;0.20;0.20;;;;;;;18.44;52.25;99763.44;6216998;23;20074;-80
2022/05/07 07:50:38;;;;;;;0.20;0.20;;;;;;;17.94;56.03;99776.22;6216011;23;20426;-83
2022/05/07 07:53:09;;;;;;;0.20;0.20;;;;;;;18.10;57.28;99772.78;6217242;23;20008;-81
2022/05/07 07:55:36;;;;;;;0.20;0.20;;;;;;;17.72;58.00;99772.91;6216202;23;20011;-84
2022/05/07 07:58:07;;;;;;;0.20;0.20;;;;;;;17.61;59.82;99786.25;6218294;23;20032;-85
2022/05/07 08:00:35;;;;;;;0.20;0.20;;;;;;;17.89;58.96;99784.34;6215794;23;20172;-85
2022/05/07 08:03:10;;;;;;;0.17;0.17;;;;;;;17.85;57.86;99784.41;6216932;23;20468;-85
2022/05/07 08:05:37;;;;;;;0.20;0.20;;;;;;;17.89;57.83;99782.31;6215699;23;20005;-85
2022/05/07 08:13:37;;;;;;;0.20;0.20;;;;;;;18.47;53.68;99748.50;6217122;23;20019;-86
2022/05/07 08:16:04;;;;;;;0.20;0.20;;;;;;;18.64;53.86;99757.88;6217440;23;20010;-83
2022/05/07 08:18:33;;;;;;;0.20;0.20;;;;;;;18.52;54.21;99773.38;6215807;23;20438;-81
2022/05/07 08:20:59;;;;;;;0.20;0.20;;;;;;;18.54;53.37;99770.94;6215691;23;20004;-87
2022/05/07 08:23:25;;;;;;;0.20;0.20;;;;;;;18.72;52.35;99770.66;6215605;23;20035;-87
2022/05/07 08:25:51;;;;;;;0.20;0.20;;;;;;;18.96;53.67;99771.44;6217022;23;20442;-78
2022/05/07 08:28:17;;;;;;;0.20;0.20;;;;;;;19.01;53.10;99770.94;6216758;23;20032;-75
2022/05/07 08:30:43;;;;;;;0.20;0.20;;;;;;;19.38;52.79;99767.81;6215237;23;20119;-81
2022/05/07 08:33:09;;;;;;;0.20;0.20;;;;;;;19.46;52.69;99767.69;6215684;23;20005;-81
2022/05/07 08:35:38;;;;;;;0.20;0.20;;;;;;;19.68;52.46;99774.53;6215405;23;20039;-76
2022/05/07 08:38:04;;;;;;;0.20;0.20;;;;;;;20.04;50.91;99773.75;6216041;23;20013;-81
2022/05/07 08:40:32;;;;;;;0.20;0.20;;;;;;;20.33;51.44;99773.91;6215275;23;20008;-78
2022/05/07 08:42:59;;;;;;;0.20;0.20;;;;;;;20.44;50.76;99780.09;6215074;23;20004;-76
2022/05/07 08:45:24;;;;;;;0.20;0.20;;;;;;;20.31;51.33;99784.84;6190173;23;20012;-74
2022/05/07 08:47:53;;;;;;;0.20;0.20;;;;;;;19.72;51.37;99777.28;6215138;23;20023;-79
2022/05/07 08:50:22;;;;;;;0.20;0.20;;;;;;;20.15;50.90;99779.97;6215361;23;20063;-80
2022/05/07 08:52:49;;;;;;;0.20;0.20;;;;;;;20.22;50.39;99776.97;6215048;23;20009;-77
2022/05/07 08:55:19;;;;;;;0.10;0.10;;;;;;;20.85;49.99;99765.38;6215962;23;20497;-77
2022/05/07 08:57:47;;;;;;;0.20;0.20;;;;;;;20.80;50.11;99780.03;6214504;23;20015;-75
2022/05/07 09:00:14;;;;;;;0.10;0.10;;;;;;;20.31;48.29;99771.53;6214978;23;20091;-79
2022/05/07 09:02:51;;;;;;;0.15;0.15;;;;;;;20.18;49.22;99773.41;6214938;23;20040;-76
2022/05/07 09:05:19;;;;;;;0.20;0.20;;;;;;;19.81;50.74;99774.66;6215458;23;20019;-78
2022/05/07 09:08:15;;;;;;;0.10;0.10;;;;;;;19.64;51.59;99776.63;6214832;23;20020;-76
2022/05/07 09:10:43;;;;;;;0.20;0.20;;;;;;;19.65;51.75;99768.94;6216318;23;20000;-75
2022/05/07 09:13:17;;;;;;;0.10;0.10;;;;;;;19.90;51.41;99769.22;6214854;23;20016;-68
2022/05/07 09:15:50;;;;;;;0.13;0.13;;;;;;;19.86;51.00;99752.34;6214693;23;20005;-74
2022/05/07 09:18:17;;;;;;;0.20;0.20;;;;;;;20.11;50.36;99770.78;6215239;23;20008;-71
2022/05/07 09:20:42;;;;;;;0.20;0.20;;;;;;;20.27;49.58;99770.00;6216378;23;20080;-72
2022/05/07 09:23:13;;;;;;;0.10;0.10;;;;;;;20.37;50.03;99764.09;6214781;23;20044;-72
2022/05/07 09:25:46;;;;;;;0.10;0.10;;;;;;;20.63;49.48;99755.84;6214694;23;20329;-71
2022/05/07 09:28:11;;;;;;;0.10;0.10;;;;;;;20.83;48.68;99767.06;6216199;23;20083;-73
2022/05/07 09:30:42;;;;;;;0.20;0.20;;;;;;;20.58;49.03;99762.81;6214334;23;20458;-79
2022/05/07 09:33:08;;;;;;;0.20;0.20;;;;;;;20.47;48.86;99761.50;6214886;23;20005;-72
2022/05/07 09:35:49;;;;;;;0.10;0.10;;;;;;;20.55;48.26;99754.44;6214812;23;20015;-77
2022/05/07 09:38:24;;;;;;;0.20;0.20;;;;;;;19.97;49.09;99765.44;6216221;23;20420;-72
2022/05/07 09:40:51;;;;;;;0.20;0.20;;;;;;;19.88;50.21;99761.19;6214478;23;20011;-72
2022/05/07 09:43:20;;;;;;;0.10;0.10;;;;;;;19.62;51.13;99759.34;6214316;23;20035;-70
2022/05/07 09:45:46;;;;;;;0.20;0.20;;;;;;;19.71;50.98;99756.72;6210166;23;20016;-79
2022/05/07 09:48:12;;;;;;;0.20;0.20;;;;;;;19.93;50.71;99744.97;6215323;23;20410;-78
2022/05/07 09:58:35;;;;;;;0.10;0.10;;;;;;;20.19;48.97;99746.78;6216594;23;20016;-78
2022/05/07 10:01:10;;;;;;;0.20;0.20;;;;;;;20.53;48.00;99743.56;6214587;23;20005;-76
2022/05/07 10:04:00;;;;;;;0.20;0.20;;;;;;;20.49;47.34;99748.50;6214746;23;20004;-71
2022/05/07 10:06:50;;;;;;;0.13;0.13;;;;;;;20.41;47.80;99749.91;6214019;23;20091;-72
2022/05/07 10:09:32;;;;;;;0.20;0.20;;;;;;;20.23;47.37;99750.31;6214533;23;20012;-72
2022/05/07 10:11:59;;;;;;;0.20;0.20;;;;;;;19.82;48.39;99748.81;6214495;23;20080;-70
2022/05/07 10:14:26;;;;;;;0.10;0.10;;;;;;;19.92;48.53;99743.34;6214719;23;20441;-70
2022/05/07 10:17:09;;;;;;;0.20;0.20;;;;;;;19.94;47.38;99750.19;6214744;23;20004;-71
2022/05/07 10:19:39;;;;;;;0.20;0.20;;;;;;;19.87;47.89;99751.13;6213812;23;20005;-73
2022/05/07 10:22:21;;;;;;;0.10;0.10;;;;;;;20.00;47.40;99751.25;6215358;23;20362;-74
2022/05/07 10:24:49;;;;;;;0.17;0.17;;;;;;;19.92;48.60;99751.81;6215950;23;20047;-74
2022/05/07 10:27:29;;;;;;;0.10;0.10;;;;;;;19.88;50.02;99744.25;6216276;23;20098;-75
2022/05/07 10:30:09;;;;;;;0.20;0.20;;;;;;;20.07;51.11;99742.59;6218211;23;20008;-75
2022/05/07 10:32:56;;;;;;;0.20;0.20;;;;;;;20.48;50.41;99740.47;6219555;23;20003;-75
2022/05/07 10:35:41;;;;;;;0.10;0.10;;;;;;;20.52;49.79;99739.16;6219495;23;20008;-75
2022/05/07 10:38:28;;;;;;;0.20;0.20;;;;;;;20.80;48.81;99734.00;6219570;23;20004;-77
2022/05/07 10:41:01;;;;;;;0.20;0.20;;;;;;;21.01;48.10;99741.13;6219061;23;20012;-80
2022/05/07 10:43:36;;;;;;;0.10;0.10;;;;;;;20.90;47.72;99745.03;6219222;23;20004;-79
2022/05/07 10:46:16;;;;;;;0.10;0.10;;;;;;;20.82;47.93;99728.69;6219575;23;20015;-76
2022/05/07 10:48:50;;;;;;;0.10;0.10;;;;;;;20.91;47.39;99723.22;6219730;23;20011;-78
2022/05/07 10:51:29;;;;;;;0.10;0.10;;;;;;;21.13;47.32;99718.56;6220030;23;20019;-78
2022/05/07 10:54:03;;;;;;;0.10;0.10;;;;;;;21.17;47.89;99718.47;6245488;23;20007;-78
2022/05/07 10:56:33;;;;;;;0.10;0.10;;;;;;;21.26;47.65;99720.66;6218973;23;20008;-81
2022/05/07 10:59:00;;;;;;;0.10;0.10;;;;;;;21.33;46.09;99709.16;6246443;23;20004;-76
2022/05/07 11:01:28;;;;;;;0.10;0.10;;;;;;;21.29;45.62;99709.22;6219315;23;20138;-77
2022/05/07 11:04:10;;;;;;;0.10;0.10;;;;;;;21.17;46.61;99718.47;6219034;23;20008;-75
2022/05/07 11:06:45;;;;;;;0.10;0.10;;;;;;;20.87;47.95;99692.19;6246080;23;20034;-77
2022/05/07 11:09:19;;;;;;;0.10;0.10;;;;;;;20.67;48.20;99694.38;6219365;23;20009;-78
2022/05/07 11:11:52;;;;;;;0.20;0.20;;;;;;;20.75;48.24;99709.91;6193587;23;20008;-85
2022/05/07 11:14:30;;;;;;;0.10;0.10;;;;;;;20.60;48.23;99691.72;6215310;23;20062;-80
2022/05/07 11:16:58;;;;;;;0.10;0.10;;;;;;;20.67;48.36;99711.34;6245424;23;20004;-80
2022/05/07 11:19:25;;;;;;;0.10;0.10;;;;;;;20.62;48.40;99711.88;6218904;23;20016;-79
2022/05/07 11:21:52;;;;;;;0.10;0.10;;;;;;;20.47;48.95;99662.59;6219297;23;20012;-77
2022/05/07 11:24:22;;;;;;;0.10;0.10;;;;;;;20.74;49.66;99705.50;6218627;23;20028;-79
2022/05/07 11:26:55;;;;;;;0.10;0.10;;;;;;;20.61;51.88;99687.66;6219188;23;20053;-74
2022/05/07 11:29:21;;;;;;;0.10;0.10;;;;;;;19.87;55.62;99691.06;6219324;23;20011;-76
2022/05/07 11:32:01;;;;;;;0.10;0.10;;;;;;;19.88;55.95;99704.72;6213346;23;20012;-86
2022/05/07 11:34:41;;;;;;;0.20;0.20;;;;;;;19.68;56.49;99714.47;6210777;23;20011;-75
2022/05/07 11:37:23;;;;;;;0.10;0.10;;;;;;;19.39;57.34;99723.50;6213875;23;20124;-76
2022/05/07 11:40:02;;;;;;;0.13;0.13;;;;;;;19.30;58.46;99726.91;6214146;23;20009;-76
2022/05/07 11:42:49;;;;;;;0.20;0.20;;;;;;;18.89;61.98;99734.94;6215198;23;20028;-75
2022/05/07 11:45:31;;;;;;;0.10;0.10;;;;;;;18.59;64.57;99739.47;6215495;23;20000;-76
2022/05/07 11:48:06;;;;;;;0.20;0.20;;;;;;;18.20;67.95;99745.69;6215925;23;20052;-76
2022/05/07 11:50:41;;;;;;;0.20;0.20;;;;;;;17.95;68.75;99746.06;6215035;23;20027;-76
2022/05/07 11:53:20;;;;;;;0.20;0.20;;;;;;;17.69;68.60;99756.84;6214213;23;20012;-76
2022/05/07 11:55:48;;;;;;;0.13;0.13;;;;;;;17.79;70.28;99746.69;6189153;23;20005;-79
2022/05/07 11:58:21;;;;;;;0.20;0.20;;;;;;;18.23;69.60;99737.22;6214680;23;20035;-79
2022/05/07 12:00:58;;;;;;;0.20;0.20;;;;;;;18.50;70.23;99730.75;6214151;23;20005;-80
2022/05/07 12:03:25;;;;;;;0.20;0.20;;;;;;;18.73;70.27;99722.31;6213873;23;20016;-77
2022/05/07 12:05:53;;;;;;;0.20;0.20;;;;;;;18.98;70.17;99743.63;6214276;23;20031;-77
2022/05/07 12:08:20;;;;;;;0.20;0.20;;;;;;;19.09;69.66;99745.03;6215738;23;20224;-77
2022/05/07 12:10:47;;;;;;;0.20;0.20;;;;;;;19.12;66.95;99760.25;6218072;23;20119;-76
2022/05/07 12:13:18;;;;;;;0.10;0.10;;;;;;;19.21;65.47;99774.59;6216041;23;20085;-77
2022/05/07 12:18:29;;;;;;;0.20;0.20;;;;;;;20.36;61.40;99745.56;6217864;23;20031;-76